Airfield :
LOGIN :

Register | Disclaimer

   EN    FR    IT 

 










Legend :    VFR   Marginal VFR   IFR   Intensive IFR   Very Intensive IFR
Visi :
Ceiling :
>= 8 km
>= 3000ft
5 to 8 km
1000 to 3000 ft
1500m to 5 km
500 to 1000 ft
800 to 1500m
200 to 500 ft
< 800m
< 200 ft
Symbols :   Thunderstorms  Fog  Heavy snow  Heavy precipitations  Wind > 20 kt
SIGMETs :     Misc.  Thunderstorms  Icing  Turbulence  Mountain Waves  Volcanic Ashes







- Airport Elevation : 160 ft
- IATA code : FMO


EDDG - Münster Osnabrück Int.

CURRENT METAR :
  • 211620Z 15003KT 9999 FEW017 BKN250 02/01 Q1016 NOSIG

EXPIRED METARs :
  • 211550Z 16003KT 9999 FEW017 SCT050 BKN250 03/02 Q1016 NOSIG
  • 211520Z 16003KT 140V210 9999 FEW020 SCT050 BKN250 04/02 Q1016 NOSIG
  • 211450Z 18003KT 9999 FEW010 SCT033 BKN050 04/02 Q1016 NOSIG
  • 211420Z 22004KT 9999 SCT010 BKN033 04/02 Q1016 NOSIG
  • 211350Z 22005KT 9999 SCT010 BKN030 04/02 Q1015 NOSIG
  • 211320Z 23006KT 9999 BKN010 BKN028 04/02 Q1015 BECMG SCT010

TAF TAF EDDG
Valid from the 21 at 12:00 until the 22 at 12:00 UTC


211100Z 2112/2212 26005KT 9999 BKN009
BECMG 2112/2114 SCT020
BECMG 2116/2119 14005KT
BECMG 2200/2203 BKN012
TEMPO 2201/2209 3500 -RA
PROB30
TEMPO 2202/2205 2500 -SNRA BKN008
BECMG 2205/2208 BKN008
BECMG 2210/2212 27007KT
No reported NOTAMs for that airfield.



MET'MAP, your aeronautical weather chart ! - Copyright ORBIFLY December 2007 - Disclaimer

ORBIFLY MET'MAP TEAM :

Programming & Development : Alexandra Zaïnal
Concept & Development : Baudouin d'Aumeries
Co-Development & Prog : Marc-Olivier Méhu
Technical & hardware support : Manuel Goepfert

Contact : metmap@orbifly.com




SOURCES & CREDITS :

   NOAA